To NAV CANADA Home Page Login to a new session Search on AWWS site Disclaimer Vers la page française équivalente Tips FAQ What's new on the site To the Forecasts and Observations / NOTAM section To "File a Flight Plan" website Publications and other links Update of the User's profile FIC Telephone Numbers My Weather Data Folder Route Weather Data Regional Weather Data Local Weather Data To the Forecasts and Observations / NOTAM section
Request Generated 04/24/2019 at 16:11:52 UTC . Weather information available at that time is displayed.

METAR/TAF

MOOSONEE/ON    (show WxCam)

METAR CYMO 241600Z AUTO 10004KT 9SM CLR 06/M05 A2994 RMK SLP141=
METAR CYMO 241500Z AUTO 12003KT 9SM CLR 05/M05 A2996 RMK SLP146=
METAR CYMO 241400Z AUTO 15003KT 9SM CLR 02/M06 A2997 RMK SLP152=

TAF CYMO 241138Z 2412/2424 32006KT P6SM FEW150
FM241500 31008KT P6SM SKC
BECMG 2416/2418 12008KT
RMK FCST BASED ON AUTO OBS. NXT FCST BY 241800Z=
Your time UTC time
Weather data provided by Environment Canada and NAV CANADA